Aeroporto :
LOGIN :

Iscrizione | Disclaimer

   EN    FR    IT 

 










Sommario :    VFR   VFR Marginale   IFR   IFR Intensivo   IFR Molto Intensivo
Visibilità : 
Base nubi : 
>= 8 km
>= 3000ft
5 / 8 km
1000 / 3000 ft
1500m / 5 km
500 / 1000 ft
800 / 1500m
200 / 500 ft
< 800m
< 200 ft
Simboli :   Temporali  Nebbia  Neve Forte  Precipitazioni Forti  Vento > 20 kt
SIGMETs :   Varie  Temporali  Ghiacco  Turbolenza  Onda orograficha  Ceneri Vulcaniche







- Altitudine del aeroporto : 459 ft
- Codice IATA : CER
- Carte del aeroporto


LFRC - Cherbourg / Maupertus

ULTIMO METAR :
  • 202100Z AUTO 30017KT 280V340 9999 SCT022 BKN027 OVC036 09/06 Q1008

METARs OBSOLETI :
  • 202030Z AUTO 30020KT 9999 SCT025 OVC034 10/06 Q1007
  • 202000Z AUTO 29020KT 9999 SCT025 OVC043 09/06 Q1006
  • 201930Z AUTO 30019KT 9999 FEW021 BKN027 BKN033 10/06 Q1006
  • 201900Z AUTO 30019KT 9999 SCT027 SCT033 BKN041 10/07 Q1005 TEMPO 4000 RADZ BKN004 BECMG 28020G30KT
  • 201830Z AUTO 30019KT 9999 FEW010 SCT018 OVC026 10/08 Q1004 TEMPO 4000 RADZ BKN004 BECMG 28020G30KT
  • 201800Z AUTO 29020KT 8000 FEW006 SCT013 BKN021 10/09 Q1003 TEMPO 4000 RADZ BKN004 BECMG 28020G30KT

TAF AMD TAF LFRC
Valido dal 20 a 15 ore il 21 a 00 ore UTC


201546Z 2015/2024 28020G30KT 9999 BKN015
TEMPO 2015/2024 4000 RADZ BKN004
BECMG 2022/2024 32015KT
Nessun NOTAM noto per questo aeroporto.
1 SIGMET conosciuto per la FIR Brest (LFRR) :
 
Turbolenza severa
LFRR SIGMET 5 VALID 201800/202200 LFPW
LFRR BREST FIR/UIR SEV TURB FCST SE OF LINE N4615 W00130 - N4415 W00445 SFC/FL040 STNR NC=



MetMap, La meteo Aeronautica in un colpo d'occhio ! - Copyright ORBIFLY Dicembre 2007 - Disclaimer

ORBIFLY MET'MAP TEAM :

Programmazione e sviluppo : Alexandra Zaïnal
Concezione e sviluppo : Baudouin d'Aumeries
Co-Programmazione e sviluppo : Marc-Olivier Méhu
Supporto tecnico e logistico : Manuel Goepfert
Aiuto per la traduzione : Arnaldo La Scala

Contatto : metmap@orbifly.com




FONTI E CREDITI :

   NOAA